Latest Weather Observations for Cape Willoughby

IDS60801

Issued at 11:02 pm CST Tuesday 23 July 2019 (issued every 10 minutes, with the page automatically refreshed every 10 minutes)

About weather observations | Map of weather stations | Latest weather observations for SA | Other Formats
Station Details ID: 022803 Name: CAPE WILLOUGHBY Lat: -35.84 Lon: 138.13 Height: 55.0 m
Data from the previous 72 hours. | See also: Recent months at Cape Willoughby
Date/Time
CST
Temp
°C
App
Temp
°C
Dew
Point
°C
Rel
Hum
%
Delta-T
°C
Wind Press
QNH
hPa
Press
MSL
hPa
Rain since
9am
mm
Dir  Spd
km/h
Gust
km/h
Spd
kts
Gust
kts
23/11:00pm 9.2 4.8 7.6 90 0.8 WNW 20 24 11 13 1019.5 1019.6 1.6
23/10:30pm 9.4 4.7 7.8 90 0.8 WNW 22 24 12 13 1019.4 1019.5 1.6
23/10:00pm 9.7 4.7 8.0 89 0.8 WNW 24 28 13 15 1019.5 1019.6 1.6
23/09:30pm 9.9 5.7 8.2 89 0.8 WNW 20 26 11 14 1019.7 1019.8 1.6
23/09:00pm 10.1 5.5 8.2 88 0.9 WNW 22 28 12 15 1019.0 1019.1 1.6
23/08:30pm 10.0 5.4 8.3 89 0.8 WNW 22 26 12 14 1018.9 1019.0 1.6
23/08:00pm 10.2 6.3 8.5 89 0.8 WNW 19 24 10 13 1018.6 1018.7 1.6
23/07:30pm 10.8 5.6 8.9 88 0.9 WNW 26 35 14 19 1018.0 1018.1 1.6
23/07:00pm 11.7 7.0 9.1 84 1.3 WSW 24 35 13 19 1017.6 1017.7 1.4
23/06:30pm 11.2 7.2 8.1 81 1.5 WNW 19 28 10 15 1016.8 1016.9 1.4
23/06:00pm 11.3 6.6 7.8 79 1.7 W 22 35 12 19 1016.0 1016.1 1.4
23/05:30pm 11.9 6.2 8.2 78 1.8 WSW 28 37 15 20 1015.5 1015.6 1.4
23/05:00pm 12.4 6.8 8.7 78 1.8 WSW 28 39 15 21 1014.8 1014.8 1.4
23/04:30pm 12.4 6.1 8.9 79 1.8 WSW 32 46 17 25 1014.2 1014.2 1.4
23/04:04pm 12.9 7.2 9.9 82 1.5 WSW 30 48 16 26 1013.5 1013.5 1.4
23/04:00pm 12.7 7.0 9.7 82 1.5 WSW 30 48 16 26 1013.4 1013.4 1.4
23/03:30pm 12.6 6.8 10.7 88 1.0 WSW 32 41 17 22 1012.8 1012.8 1.4
23/03:14pm 12.4 6.3 10.5 88 1.0 WSW 33 52 18 28 1012.6 1012.6 1.4
23/03:00pm 13.0 6.3 11.1 88 1.0 W 37 50 20 27 1012.3 1012.3 1.4
23/02:32pm 13.2 5.9 11.4 89 1.0 WNW 41 61 22 33 1011.5 1011.5 0.8
23/02:30pm 13.2 5.5 11.4 89 1.0 WNW 43 61 23 33 1011.4 1011.4 0.8
23/02:00pm 13.7 4.5 10.9 83 1.5 NW 50 69 27 37 1010.8 1010.8 0.0
23/01:32pm 13.8 4.6 10.8 82 1.6 NW 50 69 27 37 1010.6 1010.6 0.0
23/01:30pm 13.7 4.1 10.9 83 1.5 NW 52 69 28 37 1010.5 1010.5 0.0
23/01:00pm 13.2 4.3 10.6 84 1.4 NW 48 70 26 38 1010.8 1010.8 0.0
23/12:30pm 13.4 3.9 9.8 79 1.9 NW 50 69 27 37 1010.6 1010.6 0.0
23/12:00pm 13.6 2.8 9.8 78 2.0 NW 57 80 31 43 1010.7 1010.7 0.0
23/11:30am 14.0 4.6 10.2 78 2.0 NW 50 70 27 38 1011.2 1011.2 0.0
23/11:00am 13.2 3.6 9.5 78 1.9 NW 50 70 27 38 1011.2 1011.2 0.0
23/10:42am 12.8 4.0 9.4 80 1.7 NNW 46 65 25 35 1011.5 1011.5 0.0
23/10:30am 13.5 4.7 9.7 78 2.0 NNW 46 61 25 33 1011.4 1011.4 0.0
23/10:06am 13.4 4.7 8.5 72 2.5 NW 44 63 24 34 1011.5 1011.5 0.0
23/10:00am 13.3 5.4 9.4 77 2.0 NW 41 56 22 30 1011.6 1011.6 0.0
23/09:30am 12.8 5.5 8.9 77 2.0 NW 37 59 20 32 1011.5 1011.5 0.0
23/09:29am 12.9 5.8 9.4 79 1.8 NW 37 59 20 32 1011.6 1011.6 0.0
23/09:00am 12.2 6.1 8.1 76 2.0 NW 30 43 16 23 1011.8 1011.8 4.0
23/08:30am 11.1 6.4 7.6 79 1.7 NW 22 28 12 15 1012.0 1012.0 4.0
23/08:00am 10.5 5.2 6.8 78 1.7 NW 24 30 13 16 1012.0 1012.0 4.0
23/07:30am 9.8 4.4 6.2 78 1.7 WNW 24 28 13 15 1011.7 1011.7 4.0
23/07:00am 9.8 3.6 6.2 78 1.7 WNW 28 39 15 21 1011.5 1011.5 4.0
23/06:30am 9.3 3.1 6.0 80 1.5 WNW 28 37 15 20 1011.3 1011.3 4.0
23/06:00am 9.2 2.9 5.8 79 1.6 WNW 28 35 15 19 1011.2 1011.2 4.0
23/05:30am 9.2 2.5 5.6 78 1.6 WNW 30 41 16 22 1010.9 1010.9 4.0
23/05:00am 9.3 3.3 5.5 77 1.7 WNW 26 35 14 19 1010.8 1010.8 4.0
23/04:30am 9.8 2.6 6.0 77 1.8 WNW 33 44 18 24 1010.5 1010.5 4.0
23/04:00am 9.4 2.4 5.9 79 1.6 WNW 32 39 17 21 1010.4 1010.4 4.0
23/03:30am 9.6 2.4 6.1 79 1.6 WNW 33 43 18 23 1009.9 1009.9 4.0
23/03:00am 9.6 2.4 6.1 79 1.6 WNW 33 44 18 24 1010.2 1010.2 4.0
23/02:30am 9.7 1.8 6.4 80 1.5 WNW 37 48 20 26 1009.8 1009.8 4.0
23/02:00am 9.5 3.4 6.4 81 1.4 WNW 28 35 15 19 1009.8 1009.8 4.0
23/01:30am 10.2 3.4 6.9 80 1.6 WNW 32 50 17 27 1009.7 1009.7 4.0
23/01:25am 10.3 4.2 6.8 79 1.7 WNW 28 46 15 25 1009.8 1009.8 4.0
23/01:00am 10.3 4.7 7.0 80 1.6 WNW 26 39 14 21 1009.5 1009.5 3.8
23/12:30am 10.2 5.0 7.4 83 1.3 WNW 24 30 13 16 1009.6 1009.6 3.8
23/12:00am 10.1 4.9 7.2 82 1.4 WNW 24 35 13 19 1009.4 1009.4 3.8
 
Date/Time
CST
Temp
°C
App
Temp
°C
Dew
Point
°C
Rel
Hum
%
Delta-T
°C
Wind Press
QNH
hPa
Press
MSL
hPa
Rain since
9am
mm
Dir  Spd
km/h
Gust
km/h
Spd
kts
Gust
kts
22/11:30pm 10.1 2.8 7.2 82 1.4 WNW 35 44 19 24 1009.4 1009.4 3.8
22/11:00pm 9.7 3.3 6.8 82 1.4 WNW 30 39 16 21 1009.4 1009.4 3.8
22/10:30pm 10.4 2.2 6.7 78 1.7 WNW 39 54 21 29 1009.7 1009.7 3.6
22/10:25pm 10.6 3.8 6.7 77 1.8 WNW 32 54 17 29 1009.6 1009.6 3.6
22/10:23pm 10.7 4.6 6.8 77 1.8 WNW 28 43 15 23 1009.6 1009.6 3.4
22/10:00pm 10.1 5.7 6.6 79 1.6 WNW 19 22 10 12 1009.5 1009.5 3.4
22/09:30pm 10.4 5.9 6.9 79 1.7 WNW 20 26 11 14 1009.5 1009.5 3.4
22/09:00pm 10.6 6.4 7.5 81 1.5 WNW 19 24 10 13 1009.3 1009.3 3.4
22/08:30pm 10.8 7.1 7.9 82 1.4 WNW 17 22 9 12 1009.4 1009.4 3.4
22/08:00pm 11.0 7.0 8.4 84 1.3 WNW 19 24 10 13 1009.3 1009.3 3.4
22/07:30pm 10.9 7.3 8.3 84 1.3 NW 17 20 9 11 1009.0 1009.0 3.4
22/07:00pm 11.2 7.4 8.9 86 1.1 NW 19 28 10 15 1008.5 1008.5 3.4
22/06:30pm 11.2 6.1 9.1 87 1.1 WNW 26 33 14 18 1008.3 1008.3 3.4
22/06:00pm 11.1 6.8 9.2 88 1.0 NW 22 32 12 17 1007.9 1007.9 3.4
22/05:30pm 11.1 6.8 9.2 88 1.0 W 22 32 12 17 1007.6 1007.6 3.4
22/05:00pm 11.3 4.2 9.4 88 1.0 W 37 48 20 26 1007.7 1007.7 3.2
22/04:49pm 11.6 6.2 9.5 87 1.1 W 28 48 15 26 1007.4 1007.4 2.8
22/04:30pm 12.0 8.4 9.9 87 1.1 WNW 19 26 10 14 1006.8 1006.8 2.4
22/04:00pm 12.2 7.6 9.8 85 1.2 W 24 32 13 17 1006.6 1006.6 2.0
22/03:35pm 13.2 5.5 10.0 81 1.7 WNW 41 59 22 32 1006.4 1006.4 1.0
22/03:30pm 13.5 4.8 9.9 79 1.9 WNW 46 65 25 35 1006.1 1006.1 0.6
22/03:25pm 13.8 5.0 9.6 76 2.2 NW 46 65 25 35 1005.9 1005.9 0.4
22/03:00pm 15.4 5.6 8.6 64 3.5 NNW 50 67 27 36 1004.8 1004.8 0.0
22/02:30pm 15.4 4.2 8.4 63 3.6 NNW 57 83 31 45 1004.0 1004.0 0.0
22/02:00pm 15.0 4.0 8.3 64 3.4 NNW 56 76 30 41 1004.3 1004.3 0.0
22/01:30pm 15.4 3.4 8.2 62 3.7 NNW 61 87 33 47 1004.0 1004.0 0.0
22/01:00pm 15.2 4.1 8.2 63 3.5 NNW 56 78 30 42 1004.4 1004.4 0.0
22/12:30pm 15.4 1.9 8.4 63 3.6 NNW 69 93 37 50 1004.1 1004.1 0.0
22/12:00pm 14.8 2.9 8.7 67 3.1 NNW 61 89 33 48 1005.0 1005.0 0.0
22/11:58am 14.9 3.0 8.8 67 3.1 NNW 61 85 33 46 1005.1 1005.1 0.0
22/11:57am 15.1 3.4 9.5 69 2.9 NNW 61 85 33 46 1005.3 1005.3 0.0
22/11:30am 14.8 0.1 9.0 68 3.0 NNW 76 96 41 52 1005.1 1005.1 0.0
22/11:00am 14.6 -0.7 8.1 65 3.3 NNW 78 96 42 52 1005.4 1005.4 0.0
22/10:30am 14.4 0.3 8.1 66 3.2 NNW 72 95 39 51 1006.0 1006.0 0.0
22/10:00am 14.9 1.4 8.4 65 3.3 NNW 69 91 37 49 1006.8 1006.8 0.0
22/09:30am 14.3 1.9 8.3 67 3.0 NNW 63 85 34 46 1007.3 1007.3 0.0
22/09:00am 13.8 1.4 8.2 69 2.8 NNW 63 82 34 44 1007.3 1007.3 0.0
22/08:34am 13.6 0.8 8.2 70 2.7 NNW 65 85 35 46 1007.2 1007.2 0.0
22/08:30am 13.5 1.5 8.1 70 2.7 NNW 61 76 33 41 1007.3 1007.3 0.0
22/08:00am 13.4 2.3 8.0 70 2.7 NNW 56 70 30 38 1007.7 1007.7 0.0
22/07:30am 13.3 4.0 7.7 69 2.8 NNW 46 76 25 41 1008.1 1008.1 0.0
22/07:27am 13.3 4.4 7.7 69 2.8 NNW 44 76 24 41 1008.1 1008.1 0.0
22/07:00am 13.2 4.4 7.9 70 2.6 NNW 44 61 24 33 1008.3 1008.3 0.0
22/06:30am 13.0 4.4 8.3 73 2.3 NNW 43 65 23 35 1008.5 1008.5 0.0
22/06:17am 12.9 4.7 8.2 73 2.3 NNW 41 59 22 32 1008.5 1008.5 0.0
22/06:00am 12.8 4.1 8.3 74 2.2 NNW 44 59 24 32 1008.5 1008.5 0.0
22/05:30am 12.9 3.4 8.4 74 2.2 NNW 48 67 26 36 1008.5 1008.5 0.0
22/05:13am 12.8 3.3 8.5 75 2.1 NNW 48 69 26 37 1008.4 1008.4 0.0
22/05:00am 12.9 3.1 8.6 75 2.2 NNW 50 61 27 33 1008.3 1008.3 0.0
22/04:30am 12.9 2.7 8.4 74 2.2 NNW 52 72 28 39 1008.2 1008.2 0.0
22/04:25am 12.8 2.2 8.3 74 2.2 NNW 54 72 29 39 1008.1 1008.1 0.0
22/04:00am 12.7 2.2 8.8 77 2.0 NNW 54 70 29 38 1008.5 1008.5 0.0
22/03:41am 12.6 2.9 9.1 79 1.8 NNW 50 70 27 38 1008.7 1008.7 0.0
22/03:30am 12.7 2.7 9.2 79 1.8 NNW 52 67 28 36 1008.8 1008.8 0.0
22/03:03am 12.8 3.1 9.1 78 1.9 NNW 50 69 27 37 1009.2 1009.2 0.0
22/03:00am 12.8 3.1 9.1 78 1.9 NNW 50 65 27 35 1009.3 1009.3 0.0
22/02:47am 12.8 3.9 9.1 78 1.9 NNW 46 67 25 36 1009.3 1009.3 0.0
22/02:30am 12.9 3.9 9.0 77 2.0 NNW 46 61 25 33 1009.5 1009.5 0.0
22/02:00am 12.8 4.3 9.1 78 1.9 NNW 44 67 24 36 1009.9 1009.9 0.0
22/01:49am 12.9 4.1 9.7 81 1.6 NNW 46 65 25 35 1010.2 1010.2 0.0
22/01:30am 12.7 2.8 9.7 82 1.5 NNW 52 65 28 35 1009.8 1009.8 0.0
22/01:00am 12.8 1.5 9.6 81 1.6 NNW 59 78 32 42 1009.8 1009.8 0.0
22/12:32am 12.9 1.7 9.7 81 1.6 NNW 59 80 32 43 1009.8 1009.8 0.0
22/12:30am 12.9 1.3 9.9 82 1.5 NNW 61 80 33 43 1009.7 1009.7 0.0
22/12:20am 12.7 1.5 9.9 83 1.4 NNW 59 78 32 42 1009.7 1009.7 0.0
22/12:00am 12.9 2.4 10.4 85 1.3 NNW 56 69 30 37 1010.3 1010.3 0.0
 
Date/Time
CST
Temp
°C
App
Temp
°C
Dew
Point
°C
Rel
Hum
%
Delta-T
°C
Wind Press
QNH
hPa
Press
MSL
hPa
Rain since
9am
mm
Dir  Spd
km/h
Gust
km/h
Spd
kts
Gust
kts
21/11:37pm 12.8 3.4 10.3 85 1.3 NNW 50 70 27 38 1010.6 1010.6 0.0
21/11:30pm 13.1 3.8 10.6 85 1.3 NNW 50 67 27 36 1010.8 1010.8 0.0
21/11:00pm 13.1 5.9 10.5 84 1.4 NNW 39 61 21 33 1011.0 1011.0 0.0
21/10:57pm 13.1 5.9 10.5 84 1.4 NNW 39 61 21 33 1011.1 1011.1 0.0
21/10:30pm 13.1 5.9 10.5 84 1.4 NNW 39 50 21 27 1011.4 1011.4 0.0
21/10:00pm 13.0 6.1 10.4 84 1.4 NNW 37 54 20 29 1011.8 1011.8 0.0
21/09:30pm 12.9 6.0 10.3 84 1.3 NW 37 46 20 25 1011.7 1011.7 0.0
21/09:00pm 13.1 6.7 10.8 86 1.2 NNW 35 46 19 25 1012.0 1012.0 0.0
21/08:30pm 13.2 5.7 10.7 85 1.3 NNW 41 50 22 27 1012.2 1012.2 0.0
21/08:00pm 13.1 5.5 10.5 84 1.4 NNW 41 52 22 28 1012.1 1012.1 0.0
21/07:30pm 13.3 6.1 10.7 84 1.4 NNW 39 50 21 27 1012.5 1012.5 0.0
21/07:00pm 13.2 6.4 10.7 85 1.3 NNW 37 48 20 26 1012.1 1012.1 0.0
21/06:30pm 13.2 7.7 10.6 84 1.4 NNW 30 41 16 22 1012.1 1012.1 0.0
21/06:00pm 13.2 7.3 10.4 83 1.5 NNW 32 39 17 21 1011.8 1011.8 0.0
21/05:30pm 13.3 8.1 10.3 82 1.6 NNW 28 41 15 22 1011.7 1011.7 0.0
21/05:00pm 13.4 7.2 10.0 80 1.8 NNW 33 41 18 22 1011.6 1011.6 0.0
21/04:30pm 13.6 7.2 9.5 76 2.1 NNW 33 44 18 24 1011.6 1011.6 0.0
21/04:00pm 14.0 7.8 9.4 74 2.4 NNW 32 43 17 23 1011.5 1011.5 0.0
21/03:30pm 13.8 7.6 9.3 74 2.3 NW 32 50 17 27 1011.5 1011.5 0.0
21/03:28pm 13.9 7.6 9.1 73 2.4 NW 32 50 17 27 1011.4 1011.4 0.0
21/03:00pm 14.2 8.1 9.6 74 2.4 NW 32 44 17 24 1011.3 1011.3 0.0
21/02:30pm 13.9 7.4 8.9 72 2.5 NW 33 48 18 26 1011.3 1011.3 0.0
21/02:00pm 14.5 7.9 9.9 74 2.4 NW 35 50 19 27 1011.1 1011.1 0.0
21/01:30pm 13.3 6.1 9.2 76 2.1 NW 37 52 20 28 1011.3 1011.3 0.0
21/01:09pm 13.9 7.9 8.7 71 2.6 NW 30 50 16 27 1011.5 1011.5 0.0
21/01:00pm 14.5 8.4 9.9 74 2.4 NW 32 44 17 24 1011.7 1011.7 0.0
21/12:30pm 13.5 7.0 9.0 74 2.3 NNW 33 44 18 24 1012.1 1012.1 0.0
21/12:00pm 13.8 8.0 9.3 74 2.3 NW 30 39 16 21 1012.3 1012.3 0.0
21/11:30am 13.2 7.4 9.5 78 1.9 NW 30 39 16 21 1012.7 1012.7 0.0
21/11:00am 13.6 7.0 7.6 67 3.0 NW 32 48 17 26 1012.7 1012.7 0.0
21/10:30am 13.9 8.1 8.1 68 2.9 NW 28 37 15 20 1012.7 1012.7 0.0
21/10:00am 13.5 8.2 8.6 72 2.5 NW 26 39 14 21 1012.6 1012.6 0.0
21/09:30am 13.1 9.3 9.0 76 2.1 NW 19 28 10 15 1012.7 1012.7 0.0
21/09:00am 11.9 7.6 7.8 76 2.0 NW 20 24 11 13 1012.5 1012.5 0.0
21/08:30am 10.8 5.9 6.7 76 1.9 NW 22 26 12 14 1012.2 1012.2 0.0
21/08:00am 9.8 4.7 6.0 77 1.8 NW 22 28 12 15 1012.0 1012.0 0.0
21/07:30am 8.9 3.2 4.9 76 1.8 NW 24 26 13 14 1011.8 1011.8 0.0
21/07:00am 9.1 3.5 5.3 77 1.7 WNW 24 26 13 14 1011.4 1011.4 0.0
21/06:30am 9.0 3.7 5.2 77 1.7 WNW 22 24 12 13 1011.2 1011.2 0.0
21/06:00am 9.1 3.8 5.1 76 1.8 WNW 22 24 12 13 1011.0 1011.0 0.0
21/05:30am 9.4 4.2 5.4 76 1.8 WNW 22 24 12 13 1010.9 1010.9 0.0
21/05:00am 9.6 4.4 5.6 76 1.8 WNW 22 26 12 14 1010.6 1010.6 0.0
21/04:30am 10.0 5.2 5.8 75 1.9 WNW 20 24 11 13 1010.6 1010.6 0.0
21/04:00am 10.1 4.2 5.9 75 1.9 W 26 32 14 17 1010.1 1010.1 0.0
21/03:30am 10.1 4.2 5.9 75 1.9 WNW 26 33 14 18 1009.6 1009.6 0.0
21/03:00am 10.2 5.1 6.2 76 1.9 WNW 22 30 12 16 1009.4 1009.4 0.0
21/02:30am 10.7 5.4 6.6 76 1.9 WNW 24 33 13 18 1009.1 1009.1 0.0
21/02:00am 11.1 5.4 6.6 74 2.1 WNW 26 33 14 18 1008.6 1008.6 0.0
21/01:30am 11.3 6.0 6.8 74 2.1 WNW 24 32 13 17 1008.5 1008.5 0.0
21/01:00am 11.9 6.3 7.2 73 2.3 WNW 26 37 14 20 1008.4 1008.4 0.0
21/12:30am 12.5 5.9 7.8 73 2.3 W 32 46 17 25 1007.9 1007.9 0.0
21/12:00am 12.7 7.5 8.8 77 2.0 WNW 26 35 14 19 1007.2 1007.2 0.0
 
Date/Time
CST
Temp
°C
App
Temp
°C
Dew
Point
°C
Rel
Hum
%
Delta-T
°C
Wind Press
QNH
hPa
Press
MSL
hPa
Rain since
9am
mm
Dir  Spd
km/h
Gust
km/h
Spd
kts
Gust
kts
20/11:30pm 13.8 6.7 9.6 76 2.2 NW 37 50 20 27 1007.0 1007.0 0.0
20/11:02pm 14.4 6.9 9.6 73 2.5 WNW 39 61 21 33 1006.1 1006.1 0.0

Other formats

Comma delimited format used in spreadsheet applications
http://www.bom.gov.au/fwo/IDS60801/IDS60801.94822.axf

JavaScript Object Notation format (JSON) in row-major order
http://www.bom.gov.au/fwo/IDS60801/IDS60801.94822.json

Data quality

Most of these data are generated automatically and are frequently updated. Quality checks on data are not normally performed. It is possible for incorrect values to appear. Refer to information at About Latest Weather Observations and please check the disclaimer before using these data.